sensor_id;sensor_type;location;lat;lon;timestamp;temperature;humidity
40077;DHT22;25777;47.824;18.982;2022-11-20T00:01:12;2.10;99.90
40077;DHT22;25777;47.824;18.982;2022-11-20T00:03:38;2.10;99.90
40077;DHT22;25777;47.824;18.982;2022-11-20T00:06:06;2.20;99.90
40077;DHT22;25777;47.824;18.982;2022-11-20T00:08:33;2.20;99.90
40077;DHT22;25777;47.824;18.982;2022-11-20T00:11:20;2.10;99.90
40077;DHT22;25777;47.824;18.982;2022-11-20T00:13:49;2.10;99.90
40077;DHT22;25777;47.824;18.982;2022-11-20T00:16:18;2.10;99.90
40077;DHT22;25777;47.824;18.982;2022-11-20T00:18:45;2.10;99.90
40077;DHT22;25777;47.824;18.982;2022-11-20T00:21:20;2.10;99.90
40077;DHT22;25777;47.824;18.982;2022-11-20T00:23:48;2.20;99.90
40077;DHT22;25777;47.824;18.982;2022-11-20T00:26:16;2.10;99.90
40077;DHT22;25777;47.824;18.982;2022-11-20T00:28:44;2.20;99.90
40077;DHT22;25777;47.824;18.982;2022-11-20T00:31:14;2.10;99.90
40077;DHT22;25777;47.824;18.982;2022-11-20T00:33:44;2.20;99.90
40077;DHT22;25777;47.824;18.982;2022-11-20T00:36:14;2.10;99.90
40077;DHT22;25777;47.824;18.982;2022-11-20T00:38:41;2.10;99.90
40077;DHT22;25777;47.824;18.982;2022-11-20T00:41:09;2.10;99.90
40077;DHT22;25777;47.824;18.982;2022-11-20T00:43:36;2.10;99.90
40077;DHT22;25777;47.824;18.982;2022-11-20T00:46:17;2.10;99.90
40077;DHT22;25777;47.824;18.982;2022-11-20T00:48:45;2.20;99.90
40077;DHT22;25777;47.824;18.982;2022-11-20T00:51:14;2.10;99.90
40077;DHT22;25777;47.824;18.982;2022-11-20T00:53:40;2.10;99.90
40077;DHT22;25777;47.824;18.982;2022-11-20T00:56:12;2.10;99.90
40077;DHT22;25777;47.824;18.982;2022-11-20T00:58:40;2.10;99.90
40077;DHT22;25777;47.824;18.982;2022-11-20T01:01:07;2.20;99.90
40077;DHT22;25777;47.824;18.982;2022-11-20T01:03:36;2.20;99.90
40077;DHT22;25777;47.824;18.982;2022-11-20T01:06:06;2.10;99.90
40077;DHT22;25777;47.824;18.982;2022-11-20T01:08:35;2.10;99.90
40077;DHT22;25777;47.824;18.982;2022-11-20T01:11:07;2.10;99.90
40077;DHT22;25777;47.824;18.982;2022-11-20T01:13:34;2.10;99.90
40077;DHT22;25777;47.824;18.982;2022-11-20T01:16:10;2.10;99.90
40077;DHT22;25777;47.824;18.982;2022-11-20T01:18:46;2.10;99.90
40077;DHT22;25777;47.824;18.982;2022-11-20T01:21:16;2.10;99.90
40077;DHT22;25777;47.824;18.982;2022-11-20T01:23:43;2.10;99.90
40077;DHT22;25777;47.824;18.982;2022-11-20T01:26:14;2.10;99.90
40077;DHT22;25777;47.824;18.982;2022-11-20T01:28:43;2.20;99.90
40077;DHT22;25777;47.824;18.982;2022-11-20T01:31:17;2.00;99.90
40077;DHT22;25777;47.824;18.982;2022-11-20T01:33:45;2.00;99.90
40077;DHT22;25777;47.824;18.982;2022-11-20T01:36:12;1.90;99.90
40077;DHT22;25777;47.824;18.982;2022-11-20T01:38:43;2.00;99.90
40077;DHT22;25777;47.824;18.982;2022-11-20T01:41:11;1.90;99.90
40077;DHT22;25777;47.824;18.982;2022-11-20T01:43:58;1.80;99.90
40077;DHT22;25777;47.824;18.982;2022-11-20T01:46:26;1.80;99.90
40077;DHT22;25777;47.824;18.982;2022-11-20T01:51:42;1.90;99.90
40077;DHT22;25777;47.824;18.982;2022-11-20T01:54:13;1.80;99.90
40077;DHT22;25777;47.824;18.982;2022-11-20T01:56:42;1.70;99.90
40077;DHT22;25777;47.824;18.982;2022-11-20T01:59:11;1.80;99.90
40077;DHT22;25777;47.824;18.982;2022-11-20T02:01:39;1.80;99.90
40077;DHT22;25777;47.824;18.982;2022-11-20T02:04:07;1.80;99.90
40077;DHT22;25777;47.824;18.982;2022-11-20T02:06:44;1.80;99.90
40077;DHT22;25777;47.824;18.982;2022-11-20T02:09:10;1.80;99.90
40077;DHT22;25777;47.824;18.982;2022-11-20T02:11:38;1.80;99.90
40077;DHT22;25777;47.824;18.982;2022-11-20T02:14:04;1.80;99.90
40077;DHT22;25777;47.824;18.982;2022-11-20T02:16:36;1.90;99.90
40077;DHT22;25777;47.824;18.982;2022-11-20T02:19:06;1.90;99.90
40077;DHT22;25777;47.824;18.982;2022-11-20T02:22:05;1.90;99.90
40077;DHT22;25777;47.824;18.982;2022-11-20T02:24:33;1.80;99.90
40077;DHT22;25777;47.824;18.982;2022-11-20T02:27:10;1.70;99.90
40077;DHT22;25777;47.824;18.982;2022-11-20T02:29:56;1.80;99.90
40077;DHT22;25777;47.824;18.982;2022-11-20T02:32:27;1.80;99.90
40077;DHT22;25777;47.824;18.982;2022-11-20T02:34:54;1.90;99.90
40077;DHT22;25777;47.824;18.982;2022-11-20T02:37:31;1.90;99.90
40077;DHT22;25777;47.824;18.982;2022-11-20T02:39:59;1.80;99.90
40077;DHT22;25777;47.824;18.982;2022-11-20T02:42:26;1.80;99.90
40077;DHT22;25777;47.824;18.982;2022-11-20T02:44:52;1.90;99.90
40077;DHT22;25777;47.824;18.982;2022-11-20T02:47:18;2.00;99.90
40077;DHT22;25777;47.824;18.982;2022-11-20T02:49:44;1.90;99.90
40077;DHT22;25777;47.824;18.982;2022-11-20T02:52:10;2.00;99.90
40077;DHT22;25777;47.824;18.982;2022-11-20T02:54:37;1.90;99.90
40077;DHT22;25777;47.824;18.982;2022-11-20T02:57:05;1.90;99.90
40077;DHT22;25777;47.824;18.982;2022-11-20T02:59:39;1.90;99.90
40077;DHT22;25777;47.824;18.982;2022-11-20T03:02:08;1.80;99.90
40077;DHT22;25777;47.824;18.982;2022-11-20T03:04:34;1.80;99.90
40077;DHT22;25777;47.824;18.982;2022-11-20T03:07:00;1.80;99.90
40077;DHT22;25777;47.824;18.982;2022-11-20T03:09:32;1.90;99.90
40077;DHT22;25777;47.824;18.982;2022-11-20T03:11:58;1.90;99.90
40077;DHT22;25777;47.824;18.982;2022-11-20T03:14:24;1.80;99.90
40077;DHT22;25777;47.824;18.982;2022-11-20T03:16:50;1.80;99.90
40077;DHT22;25777;47.824;18.982;2022-11-20T03:19:16;1.80;99.90
40077;DHT22;25777;47.824;18.982;2022-11-20T03:21:43;1.80;99.90
40077;DHT22;25777;47.824;18.982;2022-11-20T03:24:10;1.80;99.90
40077;DHT22;25777;47.824;18.982;2022-11-20T03:26:37;1.70;99.90
40077;DHT22;25777;47.824;18.982;2022-11-20T03:29:05;1.80;99.90
40077;DHT22;25777;47.824;18.982;2022-11-20T03:31:36;1.90;99.90
40077;DHT22;25777;47.824;18.982;2022-11-20T03:34:04;1.90;99.90
40077;DHT22;25777;47.824;18.982;2022-11-20T03:36:31;1.80;99.90
40077;DHT22;25777;47.824;18.982;2022-11-20T03:38:57;1.90;99.90
40077;DHT22;25777;47.824;18.982;2022-11-20T03:41:26;1.80;99.90
40077;DHT22;25777;47.824;18.982;2022-11-20T03:44:03;1.80;99.90
40077;DHT22;25777;47.824;18.982;2022-11-20T03:46:30;2.00;99.90
40077;DHT22;25777;47.824;18.982;2022-11-20T03:48:56;2.10;99.90
40077;DHT22;25777;47.824;18.982;2022-11-20T03:51:25;2.00;99.90
40077;DHT22;25777;47.824;18.982;2022-11-20T03:53:54;2.10;99.90
40077;DHT22;25777;47.824;18.982;2022-11-20T03:56:26;2.10;99.90
40077;DHT22;25777;47.824;18.982;2022-11-20T03:58:53;1.90;99.90
40077;DHT22;25777;47.824;18.982;2022-11-20T04:01:22;2.00;99.90
40077;DHT22;25777;47.824;18.982;2022-11-20T04:03:51;1.90;99.90
40077;DHT22;25777;47.824;18.982;2022-11-20T04:06:23;1.90;99.90
40077;DHT22;25777;47.824;18.982;2022-11-20T04:08:50;2.00;99.90
40077;DHT22;25777;47.824;18.982;2022-11-20T04:11:18;1.90;99.90
40077;DHT22;25777;47.824;18.982;2022-11-20T04:13:50;1.90;99.90
40077;DHT22;25777;47.824;18.982;2022-11-20T04:16:17;1.90;99.90
40077;DHT22;25777;47.824;18.982;2022-11-20T04:18:44;1.80;99.90
40077;DHT22;25777;47.824;18.982;2022-11-20T04:21:11;1.80;99.90
40077;DHT22;25777;47.824;18.982;2022-11-20T04:23:38;1.80;99.90
40077;DHT22;25777;47.824;18.982;2022-11-20T04:26:09;1.80;99.90
40077;DHT22;25777;47.824;18.982;2022-11-20T04:28:37;1.80;99.90
40077;DHT22;25777;47.824;18.982;2022-11-20T04:31:09;1.90;99.90
40077;DHT22;25777;47.824;18.982;2022-11-20T04:33:37;1.80;99.90
40077;DHT22;25777;47.824;18.982;2022-11-20T04:36:06;1.70;99.90
40077;DHT22;25777;47.824;18.982;2022-11-20T04:38:33;1.70;99.90
40077;DHT22;25777;47.824;18.982;2022-11-20T04:41:01;1.80;99.90
40077;DHT22;25777;47.824;18.982;2022-11-20T04:43:27;1.70;99.90
40077;DHT22;25777;47.824;18.982;2022-11-20T04:45:54;1.70;99.90
40077;DHT22;25777;47.824;18.982;2022-11-20T04:48:23;1.70;99.90
40077;DHT22;25777;47.824;18.982;2022-11-20T04:50:51;1.90;99.90
40077;DHT22;25777;47.824;18.982;2022-11-20T04:53:17;1.90;99.90
40077;DHT22;25777;47.824;18.982;2022-11-20T04:55:45;1.90;99.90
40077;DHT22;25777;47.824;18.982;2022-11-20T04:58:12;1.70;99.90
40077;DHT22;25777;47.824;18.982;2022-11-20T05:00:40;1.80;99.90
40077;DHT22;25777;47.824;18.982;2022-11-20T05:03:06;1.80;99.90
40077;DHT22;25777;47.824;18.982;2022-11-20T05:05:36;1.70;99.90
40077;DHT22;25777;47.824;18.982;2022-11-20T05:08:02;1.60;99.90
40077;DHT22;25777;47.824;18.982;2022-11-20T05:10:28;1.70;99.90
40077;DHT22;25777;47.824;18.982;2022-11-20T05:12:57;1.70;99.90
40077;DHT22;25777;47.824;18.982;2022-11-20T05:15:24;1.70;99.90
40077;DHT22;25777;47.824;18.982;2022-11-20T05:17:51;1.80;99.90
40077;DHT22;25777;47.824;18.982;2022-11-20T05:20:20;1.60;99.90
40077;DHT22;25777;47.824;18.982;2022-11-20T05:22:46;1.50;99.90
40077;DHT22;25777;47.824;18.982;2022-11-20T05:25:12;1.60;99.90
40077;DHT22;25777;47.824;18.982;2022-11-20T05:27:39;1.70;99.90
40077;DHT22;25777;47.824;18.982;2022-11-20T05:30:07;1.60;99.90
40077;DHT22;25777;47.824;18.982;2022-11-20T05:32:35;1.60;99.90
40077;DHT22;25777;47.824;18.982;2022-11-20T05:35:03;1.60;99.90
40077;DHT22;25777;47.824;18.982;2022-11-20T05:37:30;1.60;99.90
40077;DHT22;25777;47.824;18.982;2022-11-20T05:39:57;1.70;99.90
40077;DHT22;25777;47.824;18.982;2022-11-20T05:42:23;1.90;99.90
40077;DHT22;25777;47.824;18.982;2022-11-20T05:45:03;1.80;99.90
40077;DHT22;25777;47.824;18.982;2022-11-20T05:47:34;1.80;99.90
40077;DHT22;25777;47.824;18.982;2022-11-20T05:50:01;1.90;99.90
40077;DHT22;25777;47.824;18.982;2022-11-20T05:52:29;2.00;99.90
40077;DHT22;25777;47.824;18.982;2022-11-20T05:54:56;2.10;99.90
40077;DHT22;25777;47.824;18.982;2022-11-20T05:57:25;1.90;99.90
40077;DHT22;25777;47.824;18.982;2022-11-20T05:59:52;1.90;99.90
40077;DHT22;25777;47.824;18.982;2022-11-20T06:02:17;1.80;99.90
40077;DHT22;25777;47.824;18.982;2022-11-20T06:04:48;1.90;99.90
40077;DHT22;25777;47.824;18.982;2022-11-20T06:07:14;1.70;99.90
40077;DHT22;25777;47.824;18.982;2022-11-20T06:09:44;1.70;99.90
40077;DHT22;25777;47.824;18.982;2022-11-20T06:12:10;1.80;99.90
40077;DHT22;25777;47.824;18.982;2022-11-20T06:14:39;1.70;99.90
40077;DHT22;25777;47.824;18.982;2022-11-20T06:17:07;1.70;99.90
40077;DHT22;25777;47.824;18.982;2022-11-20T06:19:33;1.70;99.90
40077;DHT22;25777;47.824;18.982;2022-11-20T06:22:06;1.80;99.90
40077;DHT22;25777;47.824;18.982;2022-11-20T06:24:33;1.80;99.90
40077;DHT22;25777;47.824;18.982;2022-11-20T06:27:01;1.90;99.90
40077;DHT22;25777;47.824;18.982;2022-11-20T06:29:28;1.90;99.90
40077;DHT22;25777;47.824;18.982;2022-11-20T06:31:55;2.10;99.90
40077;DHT22;25777;47.824;18.982;2022-11-20T06:34:23;2.00;99.90
40077;DHT22;25777;47.824;18.982;2022-11-20T06:36:51;2.00;99.90
40077;DHT22;25777;47.824;18.982;2022-11-20T06:39:17;1.90;99.90
40077;DHT22;25777;47.824;18.982;2022-11-20T06:41:43;1.90;99.90
40077;DHT22;25777;47.824;18.982;2022-11-20T06:44:08;1.90;99.90
40077;DHT22;25777;47.824;18.982;2022-11-20T06:46:34;1.90;99.90
40077;DHT22;25777;47.824;18.982;2022-11-20T06:49:00;1.90;99.90
40077;DHT22;25777;47.824;18.982;2022-11-20T06:51:26;1.90;99.90
40077;DHT22;25777;47.824;18.982;2022-11-20T06:53:53;2.10;99.90
40077;DHT22;25777;47.824;18.982;2022-11-20T06:56:25;2.00;99.90
40077;DHT22;25777;47.824;18.982;2022-11-20T06:58:51;2.10;99.90
40077;DHT22;25777;47.824;18.982;2022-11-20T07:01:22;2.10;99.90
40077;DHT22;25777;47.824;18.982;2022-11-20T07:03:51;2.30;99.90
40077;DHT22;25777;47.824;18.982;2022-11-20T07:06:17;2.30;99.90
40077;DHT22;25777;47.824;18.982;2022-11-20T07:08:43;2.20;99.90
40077;DHT22;25777;47.824;18.982;2022-11-20T07:11:12;2.20;99.90
40077;DHT22;25777;47.824;18.982;2022-11-20T07:13:49;2.10;99.90
40077;DHT22;25777;47.824;18.982;2022-11-20T07:16:16;2.20;99.90
40077;DHT22;25777;47.824;18.982;2022-11-20T07:18:43;2.40;99.90
40077;DHT22;25777;47.824;18.982;2022-11-20T07:21:10;2.40;99.90
40077;DHT22;25777;47.824;18.982;2022-11-20T07:23:40;2.40;99.90
40077;DHT22;25777;47.824;18.982;2022-11-20T07:26:10;2.50;99.90
40077;DHT22;25777;47.824;18.982;2022-11-20T07:28:38;2.50;99.90
40077;DHT22;25777;47.824;18.982;2022-11-20T07:31:05;2.60;99.90
40077;DHT22;25777;47.824;18.982;2022-11-20T07:33:33;2.60;99.90
40077;DHT22;25777;47.824;18.982;2022-11-20T07:36:06;2.60;99.90
40077;DHT22;25777;47.824;18.982;2022-11-20T07:38:34;2.70;99.90
40077;DHT22;25777;47.824;18.982;2022-11-20T07:41:13;2.70;99.90
40077;DHT22;25777;47.824;18.982;2022-11-20T07:43:45;2.80;99.90
40077;DHT22;25777;47.824;18.982;2022-11-20T07:46:11;2.70;99.90
40077;DHT22;25777;47.824;18.982;2022-11-20T07:48:39;2.70;99.90
40077;DHT22;25777;47.824;18.982;2022-11-20T07:51:41;2.70;99.90
40077;DHT22;25777;47.824;18.982;2022-11-20T07:54:25;2.80;99.90
40077;DHT22;25777;47.824;18.982;2022-11-20T07:56:51;2.90;99.90
40077;DHT22;25777;47.824;18.982;2022-11-20T07:59:17;3.10;99.90
40077;DHT22;25777;47.824;18.982;2022-11-20T08:01:44;3.00;99.90
40077;DHT22;25777;47.824;18.982;2022-11-20T08:04:11;3.00;99.90
40077;DHT22;25777;47.824;18.982;2022-11-20T08:06:38;3.00;99.90
40077;DHT22;25777;47.824;18.982;2022-11-20T08:09:05;3.00;99.90
40077;DHT22;25777;47.824;18.982;2022-11-20T08:11:31;3.00;99.90
40077;DHT22;25777;47.824;18.982;2022-11-20T08:14:19;3.00;99.90
40077;DHT22;25777;47.824;18.982;2022-11-20T08:16:49;3.40;99.90
40077;DHT22;25777;47.824;18.982;2022-11-20T08:19:22;3.60;99.90
40077;DHT22;25777;47.824;18.982;2022-11-20T08:21:50;3.80;99.90
40077;DHT22;25777;47.824;18.982;2022-11-20T08:24:17;4.10;99.90
40077;DHT22;25777;47.824;18.982;2022-11-20T08:26:49;4.20;99.90
40077;DHT22;25777;47.824;18.982;2022-11-20T08:29:17;4.20;99.90
40077;DHT22;25777;47.824;18.982;2022-11-20T08:31:43;4.30;99.90
40077;DHT22;25777;47.824;18.982;2022-11-20T08:34:09;4.30;99.90
40077;DHT22;25777;47.824;18.982;2022-11-20T08:36:36;4.30;99.90
40077;DHT22;25777;47.824;18.982;2022-11-20T08:39:02;4.20;99.90
40077;DHT22;25777;47.824;18.982;2022-11-20T08:41:29;4.10;99.90
40077;DHT22;25777;47.824;18.982;2022-11-20T08:44:02;3.80;99.90
40077;DHT22;25777;47.824;18.982;2022-11-20T08:46:35;4.00;99.90
40077;DHT22;25777;47.824;18.982;2022-11-20T08:49:07;4.00;99.90
40077;DHT22;25777;47.824;18.982;2022-11-20T08:51:34;3.80;99.90
40077;DHT22;25777;47.824;18.982;2022-11-20T08:54:00;3.70;99.90
40077;DHT22;25777;47.824;18.982;2022-11-20T08:56:27;3.70;99.90
40077;DHT22;25777;47.824;18.982;2022-11-20T08:58:54;3.80;99.90
40077;DHT22;25777;47.824;18.982;2022-11-20T09:01:21;4.00;99.90
40077;DHT22;25777;47.824;18.982;2022-11-20T09:03:49;4.00;99.90
40077;DHT22;25777;47.824;18.982;2022-11-20T09:06:16;4.10;99.90
40077;DHT22;25777;47.824;18.982;2022-11-20T09:08:54;4.10;99.90
40077;DHT22;25777;47.824;18.982;2022-11-20T09:11:21;4.20;99.90
40077;DHT22;25777;47.824;18.982;2022-11-20T09:13:49;4.20;99.90
40077;DHT22;25777;47.824;18.982;2022-11-20T09:16:17;4.30;99.90
40077;DHT22;25777;47.824;18.982;2022-11-20T09:18:50;4.10;99.90
40077;DHT22;25777;47.824;18.982;2022-11-20T09:21:27;4.00;99.90
40077;DHT22;25777;47.824;18.982;2022-11-20T09:23:53;4.20;99.90
40077;DHT22;25777;47.824;18.982;2022-11-20T09:26:21;4.20;99.90
40077;DHT22;25777;47.824;18.982;2022-11-20T09:28:47;4.20;99.90
40077;DHT22;25777;47.824;18.982;2022-11-20T09:31:23;4.20;99.90
40077;DHT22;25777;47.824;18.982;2022-11-20T09:33:52;4.10;99.90
40077;DHT22;25777;47.824;18.982;2022-11-20T09:36:18;4.20;99.90
40077;DHT22;25777;47.824;18.982;2022-11-20T09:38:46;4.30;99.90
40077;DHT22;25777;47.824;18.982;2022-11-20T09:46:51;4.20;99.90
40077;DHT22;25777;47.824;18.982;2022-11-20T09:53:01;4.50;99.90
40077;DHT22;25777;47.824;18.982;2022-11-20T09:55:31;4.50;99.90
40077;DHT22;25777;47.824;18.982;2022-11-20T09:57:58;4.40;99.90
40077;DHT22;25777;47.824;18.982;2022-11-20T10:00:27;4.40;99.90
40077;DHT22;25777;47.824;18.982;2022-11-20T10:03:01;4.60;99.90
40077;DHT22;25777;47.824;18.982;2022-11-20T10:05:52;5.00;99.90
40077;DHT22;25777;47.824;18.982;2022-11-20T10:08:24;5.00;99.90
40077;DHT22;25777;47.824;18.982;2022-11-20T10:11:04;4.90;99.90
40077;DHT22;25777;47.824;18.982;2022-11-20T10:30:16;5.30;99.90
40077;DHT22;25777;47.824;18.982;2022-11-20T10:38:40;5.00;99.90
40077;DHT22;25777;47.824;18.982;2022-11-20T10:41:19;5.20;99.90
40077;DHT22;25777;47.824;18.982;2022-11-20T10:44:15;5.60;99.90
40077;DHT22;25777;47.824;18.982;2022-11-20T10:47:01;5.90;99.90
40077;DHT22;25777;47.824;18.982;2022-11-20T10:49:28;5.90;99.90
40077;DHT22;25777;47.824;18.982;2022-11-20T10:55:30;6.10;99.90
40077;DHT22;25777;47.824;18.982;2022-11-20T10:58:14;5.90;99.90
40077;DHT22;25777;47.824;18.982;2022-11-20T11:00:42;5.90;99.90
40077;DHT22;25777;47.824;18.982;2022-11-20T11:03:26;6.40;99.90
40077;DHT22;25777;47.824;18.982;2022-11-20T11:08:35;6.70;99.90
40077;DHT22;25777;47.824;18.982;2022-11-20T11:13:46;7.00;99.90
40077;DHT22;25777;47.824;18.982;2022-11-20T11:16:23;6.90;99.90
40077;DHT22;25777;47.824;18.982;2022-11-20T11:18:49;7.00;99.90
40077;DHT22;25777;47.824;18.982;2022-11-20T11:21:24;6.80;99.90
40077;DHT22;25777;47.824;18.982;2022-11-20T11:24:00;7.20;99.90
40077;DHT22;25777;47.824;18.982;2022-11-20T11:26:26;7.30;99.90
40077;DHT22;25777;47.824;18.982;2022-11-20T11:28:58;6.80;99.90
40077;DHT22;25777;47.824;18.982;2022-11-20T11:31:42;6.80;99.90
40077;DHT22;25777;47.824;18.982;2022-11-20T11:34:12;6.70;99.90
40077;DHT22;25777;47.824;18.982;2022-11-20T11:36:39;6.80;99.90
40077;DHT22;25777;47.824;18.982;2022-11-20T11:39:11;6.40;99.90
40077;DHT22;25777;47.824;18.982;2022-11-20T11:41:40;6.20;99.90
40077;DHT22;25777;47.824;18.982;2022-11-20T11:50:23;6.30;99.90
40077;DHT22;25777;47.824;18.982;2022-11-20T11:53:14;6.30;99.90
40077;DHT22;25777;47.824;18.982;2022-11-20T11:55:56;6.30;99.90
40077;DHT22;25777;47.824;18.982;2022-11-20T11:58:45;6.10;99.90
40077;DHT22;25777;47.824;18.982;2022-11-20T12:06:58;6.30;99.90
40077;DHT22;25777;47.824;18.982;2022-11-20T12:09:37;6.40;99.90
40077;DHT22;25777;47.824;18.982;2022-11-20T12:12:36;6.60;99.90
40077;DHT22;25777;47.824;18.982;2022-11-20T12:15:06;6.40;99.90
40077;DHT22;25777;47.824;18.982;2022-11-20T12:17:35;6.50;99.90
40077;DHT22;25777;47.824;18.982;2022-11-20T12:20:01;6.30;99.90
40077;DHT22;25777;47.824;18.982;2022-11-20T12:22:48;6.30;99.90
40077;DHT22;25777;47.824;18.982;2022-11-20T12:25:31;6.20;99.90
40077;DHT22;25777;47.824;18.982;2022-11-20T12:28:13;6.20;99.90
40077;DHT22;25777;47.824;18.982;2022-11-20T12:31:14;6.20;99.90
40077;DHT22;25777;47.824;18.982;2022-11-20T12:36:28;6.10;99.90
40077;DHT22;25777;47.824;18.982;2022-11-20T12:39:13;6.10;99.90
40077;DHT22;25777;47.824;18.982;2022-11-20T12:45:07;6.00;99.90
40077;DHT22;25777;47.824;18.982;2022-11-20T12:47:59;6.00;99.90
40077;DHT22;25777;47.824;18.982;2022-11-20T13:01:40;5.90;99.90
40077;DHT22;25777;47.824;18.982;2022-11-20T13:06:52;5.90;99.90
40077;DHT22;25777;47.824;18.982;2022-11-20T13:09:22;5.90;99.90
40077;DHT22;25777;47.824;18.982;2022-11-20T13:12:07;6.10;99.90
40077;DHT22;25777;47.824;18.982;2022-11-20T13:20:21;5.90;99.90
40077;DHT22;25777;47.824;18.982;2022-11-20T13:22:49;5.90;99.90
40077;DHT22;25777;47.824;18.982;2022-11-20T13:25:31;5.80;99.90
40077;DHT22;25777;47.824;18.982;2022-11-20T13:28:01;5.80;99.90
40077;DHT22;25777;47.824;18.982;2022-11-20T13:30:30;5.60;99.90
40077;DHT22;25777;47.824;18.982;2022-11-20T13:33:33;5.60;99.90
40077;DHT22;25777;47.824;18.982;2022-11-20T13:36:07;5.60;99.90
40077;DHT22;25777;47.824;18.982;2022-11-20T13:38:51;5.70;99.90
40077;DHT22;25777;47.824;18.982;2022-11-20T13:41:35;5.60;99.90
40077;DHT22;25777;47.824;18.982;2022-11-20T13:44:10;5.70;99.90
40077;DHT22;25777;47.824;18.982;2022-11-20T13:46:46;5.60;99.90
40077;DHT22;25777;47.824;18.982;2022-11-20T13:49:30;5.70;99.90
40077;DHT22;25777;47.824;18.982;2022-11-20T13:57:58;5.60;99.90
40077;DHT22;25777;47.824;18.982;2022-11-20T14:00:26;5.60;99.90
40077;DHT22;25777;47.824;18.982;2022-11-20T14:03:07;5.60;99.90
40077;DHT22;25777;47.824;18.982;2022-11-20T14:06:03;5.70;99.90
40077;DHT22;25777;47.824;18.982;2022-11-20T14:08:41;5.70;99.90
40077;DHT22;25777;47.824;18.982;2022-11-20T14:11:14;5.60;99.90
40077;DHT22;25777;47.824;18.982;2022-11-20T14:14:13;5.60;99.90
40077;DHT22;25777;47.824;18.982;2022-11-20T14:16:39;5.60;99.90
40077;DHT22;25777;47.824;18.982;2022-11-20T14:19:26;5.60;99.90
40077;DHT22;25777;47.824;18.982;2022-11-20T14:24:39;5.50;99.90
40077;DHT22;25777;47.824;18.982;2022-11-20T14:27:13;5.60;99.90
40077;DHT22;25777;47.824;18.982;2022-11-20T14:29:39;5.50;99.90
40077;DHT22;25777;47.824;18.982;2022-11-20T14:32:09;5.40;99.90
40077;DHT22;25777;47.824;18.982;2022-11-20T14:34:40;5.30;99.90
40077;DHT22;25777;47.824;18.982;2022-11-20T14:37:12;5.20;99.90
40077;DHT22;25777;47.824;18.982;2022-11-20T14:39:47;5.20;99.90
40077;DHT22;25777;47.824;18.982;2022-11-20T14:42:33;5.20;99.90
40077;DHT22;25777;47.824;18.982;2022-11-20T14:45:18;5.20;99.90
40077;DHT22;25777;47.824;18.982;2022-11-20T14:47:47;5.00;99.90
40077;DHT22;25777;47.824;18.982;2022-11-20T14:50:25;4.90;99.90
40077;DHT22;25777;47.824;18.982;2022-11-20T14:53:06;4.90;99.90
40077;DHT22;25777;47.824;18.982;2022-11-20T14:55:37;4.60;99.90
40077;DHT22;25777;47.824;18.982;2022-11-20T14:58:22;4.50;99.90
40077;DHT22;25777;47.824;18.982;2022-11-20T15:00:58;4.60;99.90
40077;DHT22;25777;47.824;18.982;2022-11-20T15:03:36;4.40;99.90
40077;DHT22;25777;47.824;18.982;2022-11-20T15:06:03;4.30;99.90
40077;DHT22;25777;47.824;18.982;2022-11-20T15:08:31;4.30;99.90
40077;DHT22;25777;47.824;18.982;2022-11-20T15:10:58;4.20;99.90
40077;DHT22;25777;47.824;18.982;2022-11-20T15:13:32;4.20;99.90
40077;DHT22;25777;47.824;18.982;2022-11-20T15:16:04;4.20;99.90
40077;DHT22;25777;47.824;18.982;2022-11-20T15:18:40;4.10;99.90
40077;DHT22;25777;47.824;18.982;2022-11-20T15:21:16;4.20;99.90
40077;DHT22;25777;47.824;18.982;2022-11-20T15:23:45;4.20;99.90
40077;DHT22;25777;47.824;18.982;2022-11-20T15:26:25;4.40;99.90
40077;DHT22;25777;47.824;18.982;2022-11-20T15:28:53;4.40;99.90
40077;DHT22;25777;47.824;18.982;2022-11-20T15:31:21;4.30;99.90
40077;DHT22;25777;47.824;18.982;2022-11-20T15:33:48;4.20;99.90
40077;DHT22;25777;47.824;18.982;2022-11-20T15:36:15;4.20;99.90
40077;DHT22;25777;47.824;18.982;2022-11-20T15:38:49;4.20;99.90
40077;DHT22;25777;47.824;18.982;2022-11-20T15:41:17;4.10;99.90
40077;DHT22;25777;47.824;18.982;2022-11-20T15:43:43;4.20;99.90
40077;DHT22;25777;47.824;18.982;2022-11-20T15:46:13;4.20;99.90
40077;DHT22;25777;47.824;18.982;2022-11-20T15:48:44;4.30;99.90
40077;DHT22;25777;47.824;18.982;2022-11-20T15:51:32;4.20;99.90
40077;DHT22;25777;47.824;18.982;2022-11-20T15:54:16;4.20;99.90
40077;DHT22;25777;47.824;18.982;2022-11-20T15:56:46;4.20;99.90
40077;DHT22;25777;47.824;18.982;2022-11-20T15:59:12;4.20;99.90
40077;DHT22;25777;47.824;18.982;2022-11-20T16:01:41;4.30;99.90
40077;DHT22;25777;47.824;18.982;2022-11-20T16:04:14;4.40;99.90
40077;DHT22;25777;47.824;18.982;2022-11-20T16:06:43;4.40;99.90
40077;DHT22;25777;47.824;18.982;2022-11-20T16:09:15;4.40;99.90
40077;DHT22;25777;47.824;18.982;2022-11-20T16:11:41;4.30;99.90
40077;DHT22;25777;47.824;18.982;2022-11-20T16:14:11;4.20;99.90
40077;DHT22;25777;47.824;18.982;2022-11-20T16:16:55;4.10;99.90
40077;DHT22;25777;47.824;18.982;2022-11-20T16:19:23;4.00;99.90
40077;DHT22;25777;47.824;18.982;2022-11-20T16:21:50;3.90;99.90
40077;DHT22;25777;47.824;18.982;2022-11-20T16:24:19;3.80;99.90
40077;DHT22;25777;47.824;18.982;2022-11-20T16:26:54;3.80;99.90
40077;DHT22;25777;47.824;18.982;2022-11-20T16:29:20;3.80;99.90
40077;DHT22;25777;47.824;18.982;2022-11-20T16:32:10;3.60;99.90
40077;DHT22;25777;47.824;18.982;2022-11-20T16:34:44;3.60;99.90
40077;DHT22;25777;47.824;18.982;2022-11-20T16:37:16;3.50;99.90
40077;DHT22;25777;47.824;18.982;2022-11-20T16:39:44;3.40;99.90
40077;DHT22;25777;47.824;18.982;2022-11-20T16:42:11;3.30;99.90
40077;DHT22;25777;47.824;18.982;2022-11-20T16:44:37;3.10;99.90
40077;DHT22;25777;47.824;18.982;2022-11-20T16:47:05;3.10;99.90
40077;DHT22;25777;47.824;18.982;2022-11-20T16:49:33;3.10;99.90
40077;DHT22;25777;47.824;18.982;2022-11-20T16:52:06;3.10;99.90
40077;DHT22;25777;47.824;18.982;2022-11-20T16:54:32;2.80;99.90
40077;DHT22;25777;47.824;18.982;2022-11-20T16:56:58;2.70;99.90
40077;DHT22;25777;47.824;18.982;2022-11-20T16:59:24;2.70;99.90
40077;DHT22;25777;47.824;18.982;2022-11-20T17:01:51;2.60;99.90
40077;DHT22;25777;47.824;18.982;2022-11-20T17:04:18;2.40;99.90
40077;DHT22;25777;47.824;18.982;2022-11-20T17:06:46;2.30;99.90
40077;DHT22;25777;47.824;18.982;2022-11-20T17:09:13;2.40;99.90
40077;DHT22;25777;47.824;18.982;2022-11-20T17:11:39;2.40;99.90
40077;DHT22;25777;47.824;18.982;2022-11-20T17:14:06;2.40;99.90
40077;DHT22;25777;47.824;18.982;2022-11-20T17:16:34;2.30;99.90
40077;DHT22;25777;47.824;18.982;2022-11-20T17:19:01;2.20;99.90
40077;DHT22;25777;47.824;18.982;2022-11-20T17:21:37;2.10;99.90
40077;DHT22;25777;47.824;18.982;2022-11-20T17:24:09;2.20;99.90